Terminal Aerodrome Forecast
Issued by NWS Cleveland, OH

Home | Current Version | Previous Version | Graphics & Text | Print | Product List | Glossary On
Versions: 1 2 3 4 5 6 7 8 9 10 11 12 13 14 15 16 17
000
FTUS41 KCLE 252300
TAFTOL
TAF
KTOL 252330Z 2600/2624 23015G25KT P6SM BKN070
     FM260200 22010KT P6SM BKN150
     FM260800 21005KT 5SM BR BKN050
     FM261300 20010KT P6SM BKN025
     FM261800 19012G20KT P6SM VCSH BKN050=

USA.gov is the U.S. government's official web portal to all federal, state and local government web resources and services.